sensor_id;sensor_type;location;lat;lon;timestamp;pressure;altitude;pressure_sealevel;temperature;humidity
65190;BME280;51777;53.570;9.984;2023-02-23T00:01:37;100923.72;;;7.90;100.00
65190;BME280;51777;53.570;9.984;2023-02-23T00:04:06;100925.47;;;7.90;100.00
65190;BME280;51777;53.570;9.984;2023-02-23T00:06:34;100918.00;;;7.87;100.00
65190;BME280;51777;53.570;9.984;2023-02-23T00:09:00;100920.59;;;7.87;100.00
65190;BME280;51777;53.570;9.984;2023-02-23T00:11:26;100914.75;;;7.85;100.00
65190;BME280;51777;53.570;9.984;2023-02-23T00:13:53;100913.09;;;7.84;100.00
65190;BME280;51777;53.570;9.984;2023-02-23T00:16:21;100915.00;;;7.82;100.00
65190;BME280;51777;53.570;9.984;2023-02-23T00:18:50;100914.28;;;7.80;100.00
65190;BME280;51777;53.570;9.984;2023-02-23T00:23:56;100910.31;;;7.76;100.00
65190;BME280;51777;53.570;9.984;2023-02-23T00:26:24;100910.69;;;7.71;100.00
65190;BME280;51777;53.570;9.984;2023-02-23T00:28:52;100909.88;;;7.71;100.00
65190;BME280;51777;53.570;9.984;2023-02-23T00:31:20;100908.34;;;7.68;100.00
65190;BME280;51777;53.570;9.984;2023-02-23T00:34:00;100908.34;;;7.68;100.00
65190;BME280;51777;53.570;9.984;2023-02-23T00:36:28;100906.84;;;7.65;100.00
65190;BME280;51777;53.570;9.984;2023-02-23T00:38:55;100905.91;;;7.66;100.00
65190;BME280;51777;53.570;9.984;2023-02-23T00:41:22;100902.50;;;7.66;100.00
65190;BME280;51777;53.570;9.984;2023-02-23T00:43:53;100907.53;;;7.68;100.00
65190;BME280;51777;53.570;9.984;2023-02-23T00:46:21;100912.94;;;7.64;100.00
65190;BME280;51777;53.570;9.984;2023-02-23T00:48:49;100914.13;;;7.60;100.00
65190;BME280;51777;53.570;9.984;2023-02-23T00:51:15;100915.19;;;7.58;100.00
65190;BME280;51777;53.570;9.984;2023-02-23T00:53:41;100911.81;;;7.57;100.00
65190;BME280;51777;53.570;9.984;2023-02-23T00:56:08;100912.72;;;7.56;100.00
65190;BME280;51777;53.570;9.984;2023-02-23T00:58:33;100913.44;;;7.58;100.00
65190;BME280;51777;53.570;9.984;2023-02-23T01:00:59;100912.63;;;7.58;100.00
65190;BME280;51777;53.570;9.984;2023-02-23T01:03:26;100906.88;;;7.54;100.00
65190;BME280;51777;53.570;9.984;2023-02-23T01:05:51;100903.75;;;7.51;100.00
65190;BME280;51777;53.570;9.984;2023-02-23T01:08:17;100911.47;;;7.51;100.00
65190;BME280;51777;53.570;9.984;2023-02-23T01:10:43;100910.66;;;7.50;100.00
65190;BME280;51777;53.570;9.984;2023-02-23T01:13:20;100912.41;;;7.50;100.00
65190;BME280;51777;53.570;9.984;2023-02-23T01:15:46;100914.16;;;7.49;100.00
65190;BME280;51777;53.570;9.984;2023-02-23T01:18:15;100918.38;;;7.50;100.00
65190;BME280;51777;53.570;9.984;2023-02-23T01:20:41;100916.03;;;7.47;100.00
65190;BME280;51777;53.570;9.984;2023-02-23T01:23:09;100911.72;;;7.48;100.00
65190;BME280;51777;53.570;9.984;2023-02-23T01:25:37;100912.66;;;7.47;100.00
65190;BME280;51777;53.570;9.984;2023-02-23T01:28:03;100911.97;;;7.45;100.00
65190;BME280;51777;53.570;9.984;2023-02-23T01:30:29;100907.03;;;7.42;100.00
65190;BME280;51777;53.570;9.984;2023-02-23T01:32:54;100900.13;;;7.42;100.00
65190;BME280;51777;53.570;9.984;2023-02-23T01:35:20;100906.00;;;7.44;100.00
65190;BME280;51777;53.570;9.984;2023-02-23T01:37:46;100896.63;;;7.43;100.00
65190;BME280;51777;53.570;9.984;2023-02-23T01:40:15;100905.28;;;7.42;100.00
65190;BME280;51777;53.570;9.984;2023-02-23T01:42:45;100902.72;;;7.42;100.00
65190;BME280;51777;53.570;9.984;2023-02-23T01:45:20;100902.50;;;7.45;100.00
65190;BME280;51777;53.570;9.984;2023-02-23T01:47:47;100907.50;;;7.47;100.00
65190;BME280;51777;53.570;9.984;2023-02-23T01:50:13;100905.88;;;7.46;100.00
65190;BME280;51777;53.570;9.984;2023-02-23T01:52:42;100902.13;;;7.50;100.00
65190;BME280;51777;53.570;9.984;2023-02-23T01:55:10;100900.09;;;7.53;100.00
65190;BME280;51777;53.570;9.984;2023-02-23T01:57:38;100900.78;;;7.55;100.00
65190;BME280;51777;53.570;9.984;2023-02-23T02:00:05;100900.09;;;7.53;100.00
65190;BME280;51777;53.570;9.984;2023-02-23T02:02:40;100898.47;;;7.52;100.00
65190;BME280;51777;53.570;9.984;2023-02-23T02:05:06;100899.28;;;7.53;100.00
65190;BME280;51777;53.570;9.984;2023-02-23T02:07:41;100901.16;;;7.51;100.00
65190;BME280;51777;53.570;9.984;2023-02-23T02:10:10;100902.25;;;7.48;100.00
65190;BME280;51777;53.570;9.984;2023-02-23T02:12:48;100895.47;;;7.47;100.00
65190;BME280;51777;53.570;9.984;2023-02-23T02:15:17;100896.28;;;7.48;100.00
65190;BME280;51777;53.570;9.984;2023-02-23T02:23:32;100898.72;;;7.49;100.00
65190;BME280;51777;53.570;9.984;2023-02-23T02:28:55;100894.25;;;7.51;100.00
65190;BME280;51777;53.570;9.984;2023-02-23T02:40:05;100900.78;;;7.55;100.00
65190;BME280;51777;53.570;9.984;2023-02-23T02:43:19;100893.66;;;7.59;100.00
65190;BME280;51777;53.570;9.984;2023-02-23T02:48:53;100890.72;;;7.63;100.00
65190;BME280;51777;53.570;9.984;2023-02-23T02:51:46;100890.84;;;7.62;100.00
65190;BME280;51777;53.570;9.984;2023-02-23T02:54:38;100891.53;;;7.64;100.00
65190;BME280;51777;53.570;9.984;2023-02-23T02:57:06;100886.38;;;7.64;100.00
65190;BME280;51777;53.570;9.984;2023-02-23T02:59:45;100884.75;;;7.63;100.00
65190;BME280;51777;53.570;9.984;2023-02-23T03:02:32;100880.28;;;7.65;100.00
65190;BME280;51777;53.570;9.984;2023-02-23T03:05:19;100888.84;;;7.65;100.00
65190;BME280;51777;53.570;9.984;2023-02-23T03:11:15;100889.78;;;7.64;100.00
65190;BME280;51777;53.570;9.984;2023-02-23T03:26:37;100880.69;;;7.60;100.00
65190;BME280;51777;53.570;9.984;2023-02-23T03:29:34;100886.75;;;7.59;100.00
65190;BME280;51777;53.570;9.984;2023-02-23T03:32:36;100886.06;;;7.57;100.00
65190;BME280;51777;53.570;9.984;2023-02-23T03:38:40;100888.19;;;7.52;100.00
65190;BME280;51777;53.570;9.984;2023-02-23T03:41:27;100883.84;;;7.53;100.00
65190;BME280;51777;53.570;9.984;2023-02-23T03:44:18;100887.38;;;7.52;100.00
65190;BME280;51777;53.570;9.984;2023-02-23T03:47:06;100883.03;;;7.52;100.00
65190;BME280;51777;53.570;9.984;2023-02-23T03:49:52;100873.44;;;7.54;100.00
65190;BME280;51777;53.570;9.984;2023-02-23T03:52:48;100882.78;;;7.55;100.00
65190;BME280;51777;53.570;9.984;2023-02-23T03:55:35;100885.34;;;7.55;100.00
65190;BME280;51777;53.570;9.984;2023-02-23T03:58:27;100876.59;;;7.58;100.00
65190;BME280;51777;53.570;9.984;2023-02-23T04:01:14;100879.03;;;7.59;100.00
65190;BME280;51777;53.570;9.984;2023-02-23T04:04:02;100885.13;;;7.58;100.00
65190;BME280;51777;53.570;9.984;2023-02-23T04:06:48;100882.56;;;7.58;100.00
65190;BME280;51777;53.570;9.984;2023-02-23T04:09:32;100888.53;;;7.59;100.00
65190;BME280;51777;53.570;9.984;2023-02-23T04:12:25;100882.31;;;7.61;100.00
65190;BME280;51777;53.570;9.984;2023-02-23T04:15:22;100892.09;;;7.68;100.00
65190;BME280;51777;53.570;9.984;2023-02-23T04:17:49;100888.56;;;7.69;100.00
65190;BME280;51777;53.570;9.984;2023-02-23T04:20:16;100894.31;;;7.72;100.00
65190;BME280;51777;53.570;9.984;2023-02-23T04:22:41;100887.41;;;7.73;100.00
65190;BME280;51777;53.570;9.984;2023-02-23T04:25:08;100892.19;;;7.77;100.00
65190;BME280;51777;53.570;9.984;2023-02-23T04:27:34;100893.81;;;7.78;100.00
65190;BME280;51777;53.570;9.984;2023-02-23T04:30:00;100895.31;;;7.81;100.00
65190;BME280;51777;53.570;9.984;2023-02-23T04:32:28;100895.44;;;7.79;100.00
65190;BME280;51777;53.570;9.984;2023-02-23T04:34:53;100899.28;;;7.85;100.00
65190;BME280;51777;53.570;9.984;2023-02-23T04:37:19;100900.66;;;7.89;100.00
65190;BME280;51777;53.570;9.984;2023-02-23T04:39:44;100896.22;;;7.91;100.00
65190;BME280;51777;53.570;9.984;2023-02-23T04:42:14;100894.84;;;7.87;100.00
65190;BME280;51777;53.570;9.984;2023-02-23T04:44:40;100889.00;;;7.85;100.00
65190;BME280;51777;53.570;9.984;2023-02-23T04:47:05;100894.16;;;7.85;100.00
65190;BME280;51777;53.570;9.984;2023-02-23T04:49:30;100891.56;;;7.85;100.00
65190;BME280;51777;53.570;9.984;2023-02-23T04:51:56;100899.03;;;7.88;100.00
65190;BME280;51777;53.570;9.984;2023-02-23T04:54:22;100887.81;;;7.89;100.00
65190;BME280;51777;53.570;9.984;2023-02-23T04:56:47;100889.19;;;7.93;100.00
65190;BME280;51777;53.570;9.984;2023-02-23T04:59:13;100885.78;;;7.92;100.00
65190;BME280;51777;53.570;9.984;2023-02-23T05:01:38;100886.03;;;7.89;100.00
65190;BME280;51777;53.570;9.984;2023-02-23T05:04:04;100891.19;;;7.89;100.00
65190;BME280;51777;53.570;9.984;2023-02-23T05:06:30;100884.28;;;7.90;100.00
65190;BME280;51777;53.570;9.984;2023-02-23T05:08:56;100890.13;;;7.92;100.00
65190;BME280;51777;53.570;9.984;2023-02-23T05:11:21;100888.00;;;7.97;100.00
65190;BME280;51777;53.570;9.984;2023-02-23T05:13:47;100884.78;;;8.05;100.00
65190;BME280;51777;53.570;9.984;2023-02-23T05:16:12;100894.13;;;8.06;100.00
65190;BME280;51777;53.570;9.984;2023-02-23T05:18:37;100895.69;;;8.08;100.00
65190;BME280;51777;53.570;9.984;2023-02-23T05:21:04;100900.97;;;8.07;100.00
65190;BME280;51777;53.570;9.984;2023-02-23T05:23:34;100904.56;;;8.04;100.00
65190;BME280;51777;53.570;9.984;2023-02-23T05:26:02;100897.78;;;8.03;100.00
65190;BME280;51777;53.570;9.984;2023-02-23T05:28:28;100894.03;;;8.07;100.00
65190;BME280;51777;53.570;9.984;2023-02-23T05:30:54;100890.13;;;8.13;100.00
65190;BME280;51777;53.570;9.984;2023-02-23T05:33:19;100897.59;;;8.16;100.00
65190;BME280;51777;53.570;9.984;2023-02-23T05:35:46;100893.78;;;8.10;100.00
65190;BME280;51777;53.570;9.984;2023-02-23T05:38:12;100890.53;;;8.08;100.00
65190;BME280;51777;53.570;9.984;2023-02-23T05:40:37;100892.09;;;8.00;100.00
65190;BME280;51777;53.570;9.984;2023-02-23T05:43:04;100896.41;;;7.99;100.00
65190;BME280;51777;53.570;9.984;2023-02-23T05:45:29;100892.41;;;8.06;100.00
65190;BME280;51777;53.570;9.984;2023-02-23T05:47:55;100898.38;;;8.07;100.00
65190;BME280;51777;53.570;9.984;2023-02-23T05:50:20;100898.94;;;8.10;100.00
65190;BME280;51777;53.570;9.984;2023-02-23T05:52:46;100895.59;;;7.99;100.00
65190;BME280;51777;53.570;9.984;2023-02-23T05:55:11;100901.22;;;7.92;100.00
65190;BME280;51777;53.570;9.984;2023-02-23T05:57:37;100909.53;;;7.96;100.00
65190;BME280;51777;53.570;9.984;2023-02-23T06:00:05;100899.69;;;8.01;100.00
65190;BME280;51777;53.570;9.984;2023-02-23T06:02:31;100904.13;;;7.99;100.00
65190;BME280;51777;53.570;9.984;2023-02-23T06:04:56;100902.94;;;8.03;100.00
65190;BME280;51777;53.570;9.984;2023-02-23T06:07:21;100904.56;;;8.04;100.00
65190;BME280;51777;53.570;9.984;2023-02-23T06:09:47;100900.13;;;8.06;100.00
65190;BME280;51777;53.570;9.984;2023-02-23T06:12:14;100912.63;;;8.11;100.00
65190;BME280;51777;53.570;9.984;2023-02-23T06:14:39;100914.38;;;8.10;100.00
65190;BME280;51777;53.570;9.984;2023-02-23T06:17:06;100920.09;;;8.14;100.00
65190;BME280;51777;53.570;9.984;2023-02-23T06:19:37;100919.66;;;8.09;100.00
65190;BME280;51777;53.570;9.984;2023-02-23T06:22:04;100920.97;;;8.03;100.00
65190;BME280;51777;53.570;9.984;2023-02-23T06:24:30;100914.69;;;7.96;100.00
65190;BME280;51777;53.570;9.984;2023-02-23T06:26:55;100926.00;;;8.05;100.00
65190;BME280;51777;53.570;9.984;2023-02-23T06:29:21;100924.94;;;8.07;100.00
65190;BME280;51777;53.570;9.984;2023-02-23T06:31:47;100923.53;;;8.03;100.00
65190;BME280;51777;53.570;9.984;2023-02-23T06:34:12;100919.78;;;8.07;100.00
65190;BME280;51777;53.570;9.984;2023-02-23T06:36:37;100930.53;;;8.12;100.00
65190;BME280;51777;53.570;9.984;2023-02-23T06:39:23;100924.03;;;8.18;100.00
65190;BME280;51777;53.570;9.984;2023-02-23T06:41:49;100923.00;;;8.20;100.00
65190;BME280;51777;53.570;9.984;2023-02-23T06:44:14;100929.09;;;8.19;100.00
65190;BME280;51777;53.570;9.984;2023-02-23T06:46:40;100932.91;;;8.25;100.00
65190;BME280;51777;53.570;9.984;2023-02-23T06:49:05;100942.00;;;8.29;100.00
65190;BME280;51777;53.570;9.984;2023-02-23T06:51:30;100942.72;;;8.31;100.00
65190;BME280;51777;53.570;9.984;2023-02-23T06:53:56;100940.78;;;8.23;100.00
65190;BME280;51777;53.570;9.984;2023-02-23T06:56:21;100946.88;;;8.22;100.00
65190;BME280;51777;53.570;9.984;2023-02-23T06:58:49;100947.56;;;8.24;100.00
65190;BME280;51777;53.570;9.984;2023-02-23T07:01:15;100953.78;;;8.22;100.00
65190;BME280;51777;53.570;9.984;2023-02-23T07:03:41;100950.88;;;8.15;100.00
65190;BME280;51777;53.570;9.984;2023-02-23T07:06:06;100952.63;;;8.15;100.00
65190;BME280;51777;53.570;9.984;2023-02-23T07:08:32;100958.13;;;8.21;100.00
65190;BME280;51777;53.570;9.984;2023-02-23T07:11:09;100959.50;;;8.25;100.00
65190;BME280;51777;53.570;9.984;2023-02-23T07:13:35;100963.56;;;8.28;100.00
65190;BME280;51777;53.570;9.984;2023-02-23T07:16:01;100964.25;;;8.30;100.00
65190;BME280;51777;53.570;9.984;2023-02-23T07:18:27;100970.00;;;8.34;100.00
65190;BME280;51777;53.570;9.984;2023-02-23T07:20:52;100984.03;;;8.41;100.00
65190;BME280;51777;53.570;9.984;2023-02-23T07:23:18;100978.88;;;8.41;100.00
65190;BME280;51777;53.570;9.984;2023-02-23T07:25:44;100975.25;;;8.43;100.00
65190;BME280;51777;53.570;9.984;2023-02-23T07:28:09;100982.72;;;8.46;100.00
65190;BME280;51777;53.570;9.984;2023-02-23T07:30:39;100983.09;;;8.42;100.00
65190;BME280;51777;53.570;9.984;2023-02-23T07:33:04;100980.63;;;8.40;100.00
65190;BME280;51777;53.570;9.984;2023-02-23T07:35:30;100984.28;;;8.38;100.00
65190;BME280;51777;53.570;9.984;2023-02-23T07:37:55;100987.53;;;8.40;100.00
65190;BME280;51777;53.570;9.984;2023-02-23T07:40:20;100984.41;;;8.36;100.00
65190;BME280;51777;53.570;9.984;2023-02-23T07:42:46;100985.22;;;8.37;100.00
65190;BME280;51777;53.570;9.984;2023-02-23T07:45:11;100992.28;;;8.35;100.00
65190;BME280;51777;53.570;9.984;2023-02-23T07:47:37;100987.97;;;8.24;100.00
65190;BME280;51777;53.570;9.984;2023-02-23T07:50:04;100987.69;;;8.27;100.00
65190;BME280;51777;53.570;9.984;2023-02-23T07:52:38;100993.41;;;8.31;100.00
65190;BME280;51777;53.570;9.984;2023-02-23T07:55:05;100988.38;;;8.29;100.00
65190;BME280;51777;53.570;9.984;2023-02-23T07:57:31;100990.59;;;8.34;100.00
65190;BME280;51777;53.570;9.984;2023-02-23T07:59:57;100995.56;;;8.25;100.00
65190;BME280;51777;53.570;9.984;2023-02-23T08:02:22;101000.88;;;8.13;100.00
65190;BME280;51777;53.570;9.984;2023-02-23T08:04:47;101001.94;;;8.10;100.00
65190;BME280;51777;53.570;9.984;2023-02-23T08:07:13;100999.31;;;8.21;100.00
65190;BME280;51777;53.570;9.984;2023-02-23T08:09:38;101005.56;;;8.19;100.00
65190;BME280;51777;53.570;9.984;2023-02-23T08:12:04;101011.25;;;8.22;100.00
65190;BME280;51777;53.570;9.984;2023-02-23T08:14:30;101006.53;;;8.28;100.00
65190;BME280;51777;53.570;9.984;2023-02-23T08:16:55;101004.56;;;8.31;100.00
65190;BME280;51777;53.570;9.984;2023-02-23T08:19:20;101011.22;;;8.34;100.00
65190;BME280;51777;53.570;9.984;2023-02-23T08:21:49;101011.69;;;8.39;100.00
65190;BME280;51777;53.570;9.984;2023-02-23T08:24:15;101009.56;;;8.44;100.00
65190;BME280;51777;53.570;9.984;2023-02-23T08:26:41;101010.25;;;8.46;100.00
65190;BME280;51777;53.570;9.984;2023-02-23T08:29:07;101013.66;;;8.46;100.00
65190;BME280;51777;53.570;9.984;2023-02-23T08:31:32;101014.72;;;8.44;100.00
65190;BME280;51777;53.570;9.984;2023-02-23T08:33:58;101016.22;;;8.46;100.00
65190;BME280;51777;53.570;9.984;2023-02-23T08:36:23;101012.56;;;8.49;100.00
65190;BME280;51777;53.570;9.984;2023-02-23T08:38:49;101021.69;;;8.53;100.00
65190;BME280;51777;53.570;9.984;2023-02-23T08:41:15;101020.31;;;8.49;100.00
65190;BME280;51777;53.570;9.984;2023-02-23T08:43:41;101016.91;;;8.48;100.00
65190;BME280;51777;53.570;9.984;2023-02-23T08:46:08;101017.03;;;8.47;100.00
65190;BME280;51777;53.570;9.984;2023-02-23T08:48:34;101023.81;;;8.48;100.00
65190;BME280;51777;53.570;9.984;2023-02-23T08:51:00;101021.00;;;8.51;100.00
65190;BME280;51777;53.570;9.984;2023-02-23T08:53:26;101023.44;;;8.52;100.00
65190;BME280;51777;53.570;9.984;2023-02-23T08:56:02;101020.44;;;8.47;100.00
65190;BME280;51777;53.570;9.984;2023-02-23T08:58:28;101018.00;;;8.46;100.00
65190;BME280;51777;53.570;9.984;2023-02-23T09:00:58;101016.84;;;8.39;100.00
65190;BME280;51777;53.570;9.984;2023-02-23T09:03:26;101018.94;;;8.45;100.00
65190;BME280;51777;53.570;9.984;2023-02-23T09:05:55;101018.94;;;8.45;100.00
65190;BME280;51777;53.570;9.984;2023-02-23T09:08:20;101021.72;;;8.42;100.00
65190;BME280;51777;53.570;9.984;2023-02-23T09:10:49;101017.28;;;8.44;100.00
65190;BME280;51777;53.570;9.984;2023-02-23T09:13:15;101017.47;;;8.52;100.00
65190;BME280;51777;53.570;9.984;2023-02-23T09:15:42;101021.19;;;8.59;100.00
65190;BME280;51777;53.570;9.984;2023-02-23T09:18:10;101023.44;;;8.52;100.00
65190;BME280;51777;53.570;9.984;2023-02-23T09:20:40;101018.94;;;8.45;100.00
65190;BME280;51777;53.570;9.984;2023-02-23T09:23:06;101024.50;;;8.50;100.00
65190;BME280;51777;53.570;9.984;2023-02-23T09:25:31;101030.22;;;8.53;100.00
65190;BME280;51777;53.570;9.984;2023-02-23T09:27:57;101031.16;;;8.52;100.00
65190;BME280;51777;53.570;9.984;2023-02-23T09:30:24;101026.41;;;8.48;100.00
65190;BME280;51777;53.570;9.984;2023-02-23T09:32:50;101020.78;;;8.43;100.00
65190;BME280;51777;53.570;9.984;2023-02-23T09:35:17;101033.81;;;8.30;100.00
65190;BME280;51777;53.570;9.984;2023-02-23T09:37:47;101032.19;;;8.29;100.00
65190;BME280;51777;53.570;9.984;2023-02-23T09:40:18;101035.56;;;8.30;100.00
65190;BME280;51777;53.570;9.984;2023-02-23T09:47:50;101038.91;;;8.20;100.00
65190;BME280;51777;53.570;9.984;2023-02-23T09:50:21;101031.19;;;8.20;100.00
65190;BME280;51777;53.570;9.984;2023-02-23T09:52:52;101041.00;;;8.15;100.00
65190;BME280;51777;53.570;9.984;2023-02-23T09:55:24;101039.25;;;8.16;100.00
65190;BME280;51777;53.570;9.984;2023-02-23T09:57:56;101052.38;;;8.13;100.00
65190;BME280;51777;53.570;9.984;2023-02-23T10:00:25;101049.25;;;8.09;100.00
65190;BME280;51777;53.570;9.984;2023-02-23T10:02:57;101056.81;;;8.22;100.00
65190;BME280;51777;53.570;9.984;2023-02-23T10:05:27;101048.84;;;8.25;100.00
65190;BME280;51777;53.570;9.984;2023-02-23T10:08:02;101059.69;;;8.40;100.00
65190;BME280;51777;53.570;9.984;2023-02-23T10:10:42;101063.28;;;8.48;100.00
65190;BME280;51777;53.570;9.984;2023-02-23T10:18:57;101058.41;;;8.66;100.00
65190;BME280;51777;53.570;9.984;2023-02-23T10:21:40;101057.72;;;8.64;100.00
65190;BME280;51777;53.570;9.984;2023-02-23T10:24:12;101055.81;;;8.66;100.00
65190;BME280;51777;53.570;9.984;2023-02-23T10:26:52;101059.59;;;8.62;100.00
65190;BME280;51777;53.570;9.984;2023-02-23T10:29:23;101062.69;;;8.56;100.00
65190;BME280;51777;53.570;9.984;2023-02-23T10:31:55;101062.88;;;8.43;100.00
65190;BME280;51777;53.570;9.984;2023-02-23T10:34:22;101058.88;;;8.39;100.00
65190;BME280;51777;53.570;9.984;2023-02-23T10:36:55;101071.50;;;8.42;100.00
65190;BME280;51777;53.570;9.984;2023-02-23T10:39:21;101066.97;;;8.35;100.00
65190;BME280;51777;53.570;9.984;2023-02-23T10:41:47;101064.72;;;8.41;100.00
65190;BME280;51777;53.570;9.984;2023-02-23T10:44:21;101075.28;;;8.38;100.00
65190;BME280;51777;53.570;9.984;2023-02-23T10:47:15;101065.09;;;8.37;100.00
65190;BME280;51777;53.570;9.984;2023-02-23T10:49:42;101066.72;;;8.38;100.00
65190;BME280;51777;53.570;9.984;2023-02-23T10:52:15;101063.22;;;8.39;100.00
65190;BME280;51777;53.570;9.984;2023-02-23T10:54:44;101065.78;;;8.39;100.00
65190;BME280;51777;53.570;9.984;2023-02-23T10:57:19;101075.28;;;8.38;100.00
65190;BME280;51777;53.570;9.984;2023-02-23T11:02:32;101073.09;;;8.22;100.00
65190;BME280;51777;53.570;9.984;2023-02-23T11:05:00;101070.28;;;8.14;100.00
65190;BME280;51777;53.570;9.984;2023-02-23T11:07:29;101079.41;;;8.18;100.00
65190;BME280;51777;53.570;9.984;2023-02-23T11:10:22;101067.47;;;8.17;100.00
65190;BME280;51777;53.570;9.984;2023-02-23T11:12:44;101074.31;;;8.07;100.00
65190;BME280;51777;53.570;9.984;2023-02-23T11:15:32;101070.78;;;8.08;100.00
65190;BME280;51777;53.570;9.984;2023-02-23T11:18:00;101062.47;;;8.05;100.00
65190;BME280;51777;53.570;9.984;2023-02-23T11:20:30;101069.56;;;8.23;100.00
65190;BME280;51777;53.570;9.984;2023-02-23T11:23:07;101063.28;;;8.48;100.00
65190;BME280;51777;53.570;9.984;2023-02-23T11:25:33;101056.84;;;8.75;100.00
65190;BME280;51777;53.570;9.984;2023-02-23T11:27:59;101058.16;;;8.90;100.00
65190;BME280;51777;53.570;9.984;2023-02-23T11:30:35;101056.69;;;9.18;100.00
65190;BME280;51777;53.570;9.984;2023-02-23T11:33:03;101060.03;;;9.39;100.00
65190;BME280;51777;53.570;9.984;2023-02-23T11:35:36;101058.69;;;9.45;100.00
65190;BME280;51777;53.570;9.984;2023-02-23T11:41:01;101059.50;;;9.46;100.00
65190;BME280;51777;53.570;9.984;2023-02-23T11:43:26;101049.75;;;9.49;100.00
65190;BME280;51777;53.570;9.984;2023-02-23T11:45:56;101049.78;;;9.59;100.00
65190;BME280;51777;53.570;9.984;2023-02-23T11:48:30;101049.09;;;9.66;100.00
65190;BME280;51777;53.570;9.984;2023-02-23T11:50:57;101054.56;;;9.73;100.00
65190;BME280;51777;53.570;9.984;2023-02-23T11:53:45;101055.22;;;9.56;100.00
65190;BME280;51777;53.570;9.984;2023-02-23T11:56:18;101044.16;;;9.54;100.00
65190;BME280;51777;53.570;9.984;2023-02-23T11:58:53;101050.13;;;9.45;100.00
65190;BME280;51777;53.570;9.984;2023-02-23T12:01:41;101044.34;;;9.62;100.00
65190;BME280;51777;53.570;9.984;2023-02-23T12:04:25;101036.22;;;9.76;100.00
65190;BME280;51777;53.570;9.984;2023-02-23T12:10:34;101041.38;;;9.76;100.00
65190;BME280;51777;53.570;9.984;2023-02-23T12:15:53;101041.81;;;9.81;100.00
65190;BME280;51777;53.570;9.984;2023-02-23T12:24:14;101051.00;;;9.24;100.00
65190;BME280;51777;53.570;9.984;2023-02-23T12:27:09;101043.34;;;9.13;100.00
65190;BME280;51777;53.570;9.984;2023-02-23T12:29:37;101048.69;;;9.21;100.00
65190;BME280;51777;53.570;9.984;2023-02-23T12:32:10;101052.56;;;9.06;100.00
65190;BME280;51777;53.570;9.984;2023-02-23T12:40:14;101054.38;;;8.94;100.00
65190;BME280;51777;53.570;9.984;2023-02-23T12:43:20;101043.53;;;9.00;100.00
65190;BME280;51777;53.570;9.984;2023-02-23T12:46:06;101048.91;;;9.08;100.00
65190;BME280;51777;53.570;9.984;2023-02-23T12:51:42;101044.09;;;9.04;100.00
65190;BME280;51777;53.570;9.984;2023-02-23T12:54:12;101047.41;;;9.06;100.00
65190;BME280;51777;53.570;9.984;2023-02-23T12:56:59;101047.34;;;8.96;100.00
65190;BME280;51777;53.570;9.984;2023-02-23T12:59:43;101041.16;;;8.88;100.00
65190;BME280;51777;53.570;9.984;2023-02-23T13:02:19;101044.56;;;8.88;100.00
65190;BME280;51777;53.570;9.984;2023-02-23T13:10:31;101044.38;;;8.80;100.00
65190;BME280;51777;53.570;9.984;2023-02-23T13:13:03;101033.63;;;8.75;100.00
65190;BME280;51777;53.570;9.984;2023-02-23T13:16:15;101035.00;;;8.79;100.00
65190;BME280;51777;53.570;9.984;2023-02-23T13:19:10;101025.44;;;8.91;100.00
65190;BME280;51777;53.570;9.984;2023-02-23T13:21:44;101029.91;;;8.89;100.00
65190;BME280;51777;53.570;9.984;2023-02-23T13:24:28;101030.59;;;8.91;100.00
65190;BME280;51777;53.570;9.984;2023-02-23T13:27:03;101013.41;;;9.01;100.00
65190;BME280;51777;53.570;9.984;2023-02-23T13:29:51;101023.38;;;9.05;100.00
65190;BME280;51777;53.570;9.984;2023-02-23T13:32:24;101019.44;;;9.11;100.00
65190;BME280;51777;53.570;9.984;2023-02-23T13:34:56;101025.16;;;9.15;100.00
65190;BME280;51777;53.570;9.984;2023-02-23T13:37:54;101017.53;;;9.13;100.00
65190;BME280;51777;53.570;9.984;2023-02-23T13:40:47;101022.78;;;9.02;100.00
65190;BME280;51777;53.570;9.984;2023-02-23T13:43:57;101028.13;;;9.10;100.00
65190;BME280;51777;53.570;9.984;2023-02-23T13:46:17;101015.50;;;9.07;100.00
65190;BME280;51777;53.570;9.984;2023-02-23T13:48:58;101023.53;;;9.13;100.00
65190;BME280;51777;53.570;9.984;2023-02-23T13:51:33;101018.91;;;9.17;100.00
65190;BME280;51777;53.570;9.984;2023-02-23T13:54:21;101019.84;;;9.06;100.00
65190;BME280;51777;53.570;9.984;2023-02-23T13:57:00;101016.72;;;9.12;100.00
65190;BME280;51777;53.570;9.984;2023-02-23T13:59:29;101014.09;;;9.03;100.00
65190;BME280;51777;53.570;9.984;2023-02-23T14:01:55;101020.56;;;9.18;100.00
65190;BME280;51777;53.570;9.984;2023-02-23T14:04:24;101012.03;;;9.27;100.00
65190;BME280;51777;53.570;9.984;2023-02-23T14:07:16;101006.88;;;9.27;100.00
65190;BME280;51777;53.570;9.984;2023-02-23T14:09:53;101022.22;;;9.29;100.00
65190;BME280;51777;53.570;9.984;2023-02-23T14:18:27;101025.28;;;9.13;100.00
65190;BME280;51777;53.570;9.984;2023-02-23T14:21:25;101020.56;;;9.18;100.00
65190;BME280;51777;53.570;9.984;2023-02-23T14:24:04;101027.09;;;9.22;100.00
65190;BME280;51777;53.570;9.984;2023-02-23T14:26:38;101021.94;;;9.22;100.00
65190;BME280;51777;53.570;9.984;2023-02-23T14:29:24;101023.38;;;9.15;100.00
65190;BME280;51777;53.570;9.984;2023-02-23T14:34:50;101031.22;;;9.04;100.00
65190;BME280;51777;53.570;9.984;2023-02-23T14:37:38;101029.72;;;9.01;100.00
65190;BME280;51777;53.570;9.984;2023-02-23T14:40:17;101018.75;;;9.09;100.00
65190;BME280;51777;53.570;9.984;2023-02-23T14:42:48;101012.78;;;9.08;100.00
65190;BME280;51777;53.570;9.984;2023-02-23T14:45:46;101016.22;;;9.19;100.00
65190;BME280;51777;53.570;9.984;2023-02-23T14:48:12;101016.22;;;9.19;100.00